sensor_id;sensor_type;location;lat;lon;timestamp;temperature;humidity
4097;DHT22;2062;50.694;7.246;2024-02-26T00:01:12;7.40;53.60
4097;DHT22;2062;50.694;7.246;2024-02-26T00:03:40;7.30;53.80
4097;DHT22;2062;50.694;7.246;2024-02-26T00:06:10;7.40;53.90
4097;DHT22;2062;50.694;7.246;2024-02-26T00:08:37;7.30;54.00
4097;DHT22;2062;50.694;7.246;2024-02-26T00:11:03;7.30;54.00
4097;DHT22;2062;50.694;7.246;2024-02-26T00:13:31;7.30;54.10
4097;DHT22;2062;50.694;7.246;2024-02-26T00:15:58;7.30;54.20
4097;DHT22;2062;50.694;7.246;2024-02-26T00:18:25;7.30;54.20
4097;DHT22;2062;50.694;7.246;2024-02-26T00:20:53;7.30;54.30
4097;DHT22;2062;50.694;7.246;2024-02-26T00:23:19;7.30;54.30
4097;DHT22;2062;50.694;7.246;2024-02-26T00:25:46;7.20;54.40
4097;DHT22;2062;50.694;7.246;2024-02-26T00:28:13;7.20;54.30
4097;DHT22;2062;50.694;7.246;2024-02-26T00:30:40;7.20;54.40
4097;DHT22;2062;50.694;7.246;2024-02-26T00:33:07;7.20;54.40
4097;DHT22;2062;50.694;7.246;2024-02-26T00:35:33;7.20;54.50
4097;DHT22;2062;50.694;7.246;2024-02-26T00:38:02;7.30;54.60
4097;DHT22;2062;50.694;7.246;2024-02-26T00:40:29;7.20;54.60
4097;DHT22;2062;50.694;7.246;2024-02-26T00:42:55;7.20;54.70
4097;DHT22;2062;50.694;7.246;2024-02-26T00:45:22;7.20;54.80
4097;DHT22;2062;50.694;7.246;2024-02-26T00:47:49;7.20;54.80
4097;DHT22;2062;50.694;7.246;2024-02-26T00:50:16;7.10;54.80
4097;DHT22;2062;50.694;7.246;2024-02-26T00:52:43;7.20;54.80
4097;DHT22;2062;50.694;7.246;2024-02-26T00:55:11;7.20;54.90
4097;DHT22;2062;50.694;7.246;2024-02-26T00:57:38;7.20;54.90
4097;DHT22;2062;50.694;7.246;2024-02-26T01:00:07;7.10;54.90
4097;DHT22;2062;50.694;7.246;2024-02-26T01:02:35;7.10;54.90
4097;DHT22;2062;50.694;7.246;2024-02-26T01:05:01;7.10;55.00
4097;DHT22;2062;50.694;7.246;2024-02-26T01:07:28;7.10;55.00
4097;DHT22;2062;50.694;7.246;2024-02-26T01:09:58;7.10;55.10
4097;DHT22;2062;50.694;7.246;2024-02-26T01:12:27;7.10;55.00
4097;DHT22;2062;50.694;7.246;2024-02-26T01:14:53;7.10;55.00
4097;DHT22;2062;50.694;7.246;2024-02-26T01:17:20;7.10;55.10
4097;DHT22;2062;50.694;7.246;2024-02-26T01:19:47;7.10;55.20
4097;DHT22;2062;50.694;7.246;2024-02-26T01:22:14;7.10;55.20
4097;DHT22;2062;50.694;7.246;2024-02-26T01:24:40;7.10;55.20
4097;DHT22;2062;50.694;7.246;2024-02-26T01:27:07;7.10;55.30
4097;DHT22;2062;50.694;7.246;2024-02-26T01:29:36;7.10;55.30
4097;DHT22;2062;50.694;7.246;2024-02-26T01:32:03;7.10;55.40
4097;DHT22;2062;50.694;7.246;2024-02-26T01:34:31;7.10;55.40
4097;DHT22;2062;50.694;7.246;2024-02-26T01:36:58;7.00;55.40
4097;DHT22;2062;50.694;7.246;2024-02-26T01:39:24;7.10;55.50
4097;DHT22;2062;50.694;7.246;2024-02-26T01:41:51;7.10;55.50
4097;DHT22;2062;50.694;7.246;2024-02-26T01:44:18;7.10;55.50
4097;DHT22;2062;50.694;7.246;2024-02-26T01:46:47;7.10;55.50
4097;DHT22;2062;50.694;7.246;2024-02-26T01:49:14;7.10;55.60
4097;DHT22;2062;50.694;7.246;2024-02-26T01:51:43;7.10;55.60
4097;DHT22;2062;50.694;7.246;2024-02-26T01:54:11;7.10;55.60
4097;DHT22;2062;50.694;7.246;2024-02-26T01:56:38;7.00;55.70
4097;DHT22;2062;50.694;7.246;2024-02-26T01:59:07;7.00;55.80
4097;DHT22;2062;50.694;7.246;2024-02-26T02:01:35;7.00;55.90
4097;DHT22;2062;50.694;7.246;2024-02-26T02:04:04;7.00;56.00
4097;DHT22;2062;50.694;7.246;2024-02-26T02:06:31;7.00;56.10
4097;DHT22;2062;50.694;7.246;2024-02-26T02:08:58;7.00;56.20
4097;DHT22;2062;50.694;7.246;2024-02-26T02:11:32;7.00;56.20
4097;DHT22;2062;50.694;7.246;2024-02-26T02:13:59;7.00;56.20
4097;DHT22;2062;50.694;7.246;2024-02-26T02:16:26;7.00;56.30
4097;DHT22;2062;50.694;7.246;2024-02-26T02:18:52;7.00;56.50
4097;DHT22;2062;50.694;7.246;2024-02-26T02:21:21;7.00;56.40
4097;DHT22;2062;50.694;7.246;2024-02-26T02:23:47;7.00;56.50
4097;DHT22;2062;50.694;7.246;2024-02-26T02:26:15;7.00;56.60
4097;DHT22;2062;50.694;7.246;2024-02-26T02:28:42;7.00;56.70
4097;DHT22;2062;50.694;7.246;2024-02-26T02:31:09;7.00;56.80
4097;DHT22;2062;50.694;7.246;2024-02-26T02:33:36;7.00;56.80
4097;DHT22;2062;50.694;7.246;2024-02-26T02:36:04;7.00;56.80
4097;DHT22;2062;50.694;7.246;2024-02-26T02:38:36;6.90;56.80
4097;DHT22;2062;50.694;7.246;2024-02-26T02:41:02;7.00;56.70
4097;DHT22;2062;50.694;7.246;2024-02-26T02:43:29;6.90;56.90
4097;DHT22;2062;50.694;7.246;2024-02-26T02:45:56;6.90;56.90
4097;DHT22;2062;50.694;7.246;2024-02-26T02:48:23;6.90;57.00
4097;DHT22;2062;50.694;7.246;2024-02-26T02:50:49;7.00;57.00
4097;DHT22;2062;50.694;7.246;2024-02-26T02:53:16;6.90;57.00
4097;DHT22;2062;50.694;7.246;2024-02-26T02:55:45;6.90;57.10
4097;DHT22;2062;50.694;7.246;2024-02-26T02:58:12;6.90;57.10
4097;DHT22;2062;50.694;7.246;2024-02-26T03:00:38;6.90;57.20
4097;DHT22;2062;50.694;7.246;2024-02-26T03:03:05;7.00;57.10
4097;DHT22;2062;50.694;7.246;2024-02-26T03:05:32;7.00;57.90
4097;DHT22;2062;50.694;7.246;2024-02-26T03:07:59;7.10;57.20
4097;DHT22;2062;50.694;7.246;2024-02-26T03:10:25;7.00;57.20
4097;DHT22;2062;50.694;7.246;2024-02-26T03:12:54;7.00;57.30
4097;DHT22;2062;50.694;7.246;2024-02-26T03:15:21;6.90;57.90
4097;DHT22;2062;50.694;7.246;2024-02-26T03:17:48;7.00;57.30
4097;DHT22;2062;50.694;7.246;2024-02-26T03:20:15;7.00;57.30
4097;DHT22;2062;50.694;7.246;2024-02-26T03:22:44;7.00;57.40
4097;DHT22;2062;50.694;7.246;2024-02-26T03:25:11;7.00;57.50
4097;DHT22;2062;50.694;7.246;2024-02-26T03:27:38;7.00;57.40
4097;DHT22;2062;50.694;7.246;2024-02-26T03:30:08;7.00;57.50
4097;DHT22;2062;50.694;7.246;2024-02-26T03:32:35;7.00;57.60
4097;DHT22;2062;50.694;7.246;2024-02-26T03:35:02;7.00;57.60
4097;DHT22;2062;50.694;7.246;2024-02-26T03:37:29;7.00;57.80
4097;DHT22;2062;50.694;7.246;2024-02-26T03:39:56;7.00;57.70
4097;DHT22;2062;50.694;7.246;2024-02-26T03:42:23;7.00;57.80
4097;DHT22;2062;50.694;7.246;2024-02-26T03:44:50;7.00;58.40
4097;DHT22;2062;50.694;7.246;2024-02-26T03:47:18;7.00;57.90
4097;DHT22;2062;50.694;7.246;2024-02-26T03:49:45;7.00;58.00
4097;DHT22;2062;50.694;7.246;2024-02-26T03:52:11;7.00;58.60
4097;DHT22;2062;50.694;7.246;2024-02-26T03:54:38;7.00;57.90
4097;DHT22;2062;50.694;7.246;2024-02-26T03:57:05;7.00;58.00
4097;DHT22;2062;50.694;7.246;2024-02-26T03:59:31;7.00;58.00
4097;DHT22;2062;50.694;7.246;2024-02-26T04:01:58;7.00;58.00
4097;DHT22;2062;50.694;7.246;2024-02-26T04:04:28;7.00;58.10
4097;DHT22;2062;50.694;7.246;2024-02-26T04:06:55;7.00;58.00
4097;DHT22;2062;50.694;7.246;2024-02-26T04:09:22;7.00;58.00
4097;DHT22;2062;50.694;7.246;2024-02-26T04:11:48;7.00;58.00
4097;DHT22;2062;50.694;7.246;2024-02-26T04:14:15;7.00;58.20
4097;DHT22;2062;50.694;7.246;2024-02-26T04:16:42;7.00;58.30
4097;DHT22;2062;50.694;7.246;2024-02-26T04:19:09;7.00;58.40
4097;DHT22;2062;50.694;7.246;2024-02-26T04:21:37;7.00;58.40
4097;DHT22;2062;50.694;7.246;2024-02-26T04:24:04;7.00;58.50
4097;DHT22;2062;50.694;7.246;2024-02-26T04:26:31;7.00;58.60
4097;DHT22;2062;50.694;7.246;2024-02-26T04:28:57;7.00;58.60
4097;DHT22;2062;50.694;7.246;2024-02-26T04:31:24;7.00;58.70
4097;DHT22;2062;50.694;7.246;2024-02-26T04:33:51;7.00;58.80
4097;DHT22;2062;50.694;7.246;2024-02-26T04:36:18;7.00;59.00
4097;DHT22;2062;50.694;7.246;2024-02-26T04:38:46;7.00;58.90
4097;DHT22;2062;50.694;7.246;2024-02-26T04:41:13;7.00;59.00
4097;DHT22;2062;50.694;7.246;2024-02-26T04:43:40;7.00;59.10
4097;DHT22;2062;50.694;7.246;2024-02-26T04:46:08;7.00;59.10
4097;DHT22;2062;50.694;7.246;2024-02-26T04:48:35;7.00;59.30
4097;DHT22;2062;50.694;7.246;2024-02-26T04:51:02;7.00;59.30
4097;DHT22;2062;50.694;7.246;2024-02-26T04:53:28;7.00;59.30
4097;DHT22;2062;50.694;7.246;2024-02-26T04:55:57;7.00;59.50
4097;DHT22;2062;50.694;7.246;2024-02-26T04:58:23;7.00;59.40
4097;DHT22;2062;50.694;7.246;2024-02-26T05:00:50;6.90;59.60
4097;DHT22;2062;50.694;7.246;2024-02-26T05:03:17;6.90;59.60
4097;DHT22;2062;50.694;7.246;2024-02-26T05:05:44;6.90;59.60
4097;DHT22;2062;50.694;7.246;2024-02-26T05:08:11;6.90;59.70
4097;DHT22;2062;50.694;7.246;2024-02-26T05:10:38;6.90;59.80
4097;DHT22;2062;50.694;7.246;2024-02-26T05:13:08;6.90;60.00
4097;DHT22;2062;50.694;7.246;2024-02-26T05:15:35;6.90;59.80
4097;DHT22;2062;50.694;7.246;2024-02-26T05:18:02;7.00;60.10
4097;DHT22;2062;50.694;7.246;2024-02-26T05:20:29;6.90;60.10
4097;DHT22;2062;50.694;7.246;2024-02-26T05:22:56;6.90;60.10
4097;DHT22;2062;50.694;7.246;2024-02-26T05:25:24;6.90;60.30
4097;DHT22;2062;50.694;7.246;2024-02-26T05:27:51;6.80;60.10
4097;DHT22;2062;50.694;7.246;2024-02-26T05:30:19;6.80;60.20
4097;DHT22;2062;50.694;7.246;2024-02-26T05:32:46;6.80;60.10
4097;DHT22;2062;50.694;7.246;2024-02-26T05:35:13;6.80;60.30
4097;DHT22;2062;50.694;7.246;2024-02-26T05:37:40;6.80;60.50
4097;DHT22;2062;50.694;7.246;2024-02-26T05:40:07;6.80;60.40
4097;DHT22;2062;50.694;7.246;2024-02-26T05:42:34;6.80;60.30
4097;DHT22;2062;50.694;7.246;2024-02-26T05:45:01;6.80;60.50
4097;DHT22;2062;50.694;7.246;2024-02-26T05:47:32;6.80;60.40
4097;DHT22;2062;50.694;7.246;2024-02-26T05:49:59;6.80;60.50
4097;DHT22;2062;50.694;7.246;2024-02-26T05:52:26;6.80;60.70
4097;DHT22;2062;50.694;7.246;2024-02-26T05:54:53;6.80;60.70
4097;DHT22;2062;50.694;7.246;2024-02-26T05:57:20;6.80;60.80
4097;DHT22;2062;50.694;7.246;2024-02-26T05:59:46;6.70;60.90
4097;DHT22;2062;50.694;7.246;2024-02-26T06:02:13;6.70;61.10
4097;DHT22;2062;50.694;7.246;2024-02-26T06:04:42;6.70;61.10
4097;DHT22;2062;50.694;7.246;2024-02-26T06:07:08;6.80;60.90
4097;DHT22;2062;50.694;7.246;2024-02-26T06:09:35;6.70;61.10
4097;DHT22;2062;50.694;7.246;2024-02-26T06:12:02;6.70;61.30
4097;DHT22;2062;50.694;7.246;2024-02-26T06:14:29;6.70;61.30
4097;DHT22;2062;50.694;7.246;2024-02-26T06:16:55;6.70;61.20
4097;DHT22;2062;50.694;7.246;2024-02-26T06:19:22;6.70;61.50
4097;DHT22;2062;50.694;7.246;2024-02-26T06:21:50;6.70;61.40
4097;DHT22;2062;50.694;7.246;2024-02-26T06:24:17;6.70;61.40
4097;DHT22;2062;50.694;7.246;2024-02-26T06:26:46;6.70;61.40
4097;DHT22;2062;50.694;7.246;2024-02-26T06:29:13;6.70;61.70
4097;DHT22;2062;50.694;7.246;2024-02-26T06:31:40;6.70;61.90
4097;DHT22;2062;50.694;7.246;2024-02-26T06:34:06;6.70;61.80
4097;DHT22;2062;50.694;7.246;2024-02-26T06:36:33;6.70;61.70
4097;DHT22;2062;50.694;7.246;2024-02-26T06:39:01;6.70;61.90
4097;DHT22;2062;50.694;7.246;2024-02-26T06:41:31;6.70;62.20
4097;DHT22;2062;50.694;7.246;2024-02-26T06:43:57;6.70;62.20
4097;DHT22;2062;50.694;7.246;2024-02-26T06:46:24;6.70;62.20
4097;DHT22;2062;50.694;7.246;2024-02-26T06:48:51;6.70;62.30
4097;DHT22;2062;50.694;7.246;2024-02-26T06:51:18;6.70;62.40
4097;DHT22;2062;50.694;7.246;2024-02-26T06:53:45;6.70;62.20
4097;DHT22;2062;50.694;7.246;2024-02-26T06:56:13;6.70;62.30
4097;DHT22;2062;50.694;7.246;2024-02-26T06:58:40;6.70;62.20
4097;DHT22;2062;50.694;7.246;2024-02-26T07:01:07;6.70;62.30
4097;DHT22;2062;50.694;7.246;2024-02-26T07:03:34;6.70;62.40
4097;DHT22;2062;50.694;7.246;2024-02-26T07:06:01;6.70;62.50
4097;DHT22;2062;50.694;7.246;2024-02-26T07:08:28;6.70;62.70
4097;DHT22;2062;50.694;7.246;2024-02-26T07:10:55;6.70;62.70
4097;DHT22;2062;50.694;7.246;2024-02-26T07:13:23;6.70;62.60
4097;DHT22;2062;50.694;7.246;2024-02-26T07:15:50;6.70;62.80
4097;DHT22;2062;50.694;7.246;2024-02-26T07:18:17;6.60;62.80
4097;DHT22;2062;50.694;7.246;2024-02-26T07:20:43;6.70;62.90
4097;DHT22;2062;50.694;7.246;2024-02-26T07:23:10;6.70;63.30
4097;DHT22;2062;50.694;7.246;2024-02-26T07:25:38;6.70;64.10
4097;DHT22;2062;50.694;7.246;2024-02-26T07:28:05;6.70;63.20
4097;DHT22;2062;50.694;7.246;2024-02-26T07:30:33;6.70;63.40
4097;DHT22;2062;50.694;7.246;2024-02-26T07:33:00;6.70;63.40
4097;DHT22;2062;50.694;7.246;2024-02-26T07:35:27;6.70;63.40
4097;DHT22;2062;50.694;7.246;2024-02-26T07:37:54;6.70;63.50
4097;DHT22;2062;50.694;7.246;2024-02-26T07:40:20;6.70;63.40
4097;DHT22;2062;50.694;7.246;2024-02-26T07:42:47;6.70;63.40
4097;DHT22;2062;50.694;7.246;2024-02-26T07:45:14;6.70;63.80
4097;DHT22;2062;50.694;7.246;2024-02-26T07:47:46;6.70;63.80
4097;DHT22;2062;50.694;7.246;2024-02-26T07:50:13;6.70;64.10
4097;DHT22;2062;50.694;7.246;2024-02-26T07:52:40;6.70;64.10
4097;DHT22;2062;50.694;7.246;2024-02-26T07:55:07;6.70;64.20
4097;DHT22;2062;50.694;7.246;2024-02-26T07:57:34;6.70;64.20
4097;DHT22;2062;50.694;7.246;2024-02-26T08:00:01;6.70;64.30
4097;DHT22;2062;50.694;7.246;2024-02-26T08:02:28;6.70;64.50
4097;DHT22;2062;50.694;7.246;2024-02-26T08:04:56;6.70;64.10
4097;DHT22;2062;50.694;7.246;2024-02-26T08:07:23;6.70;64.40
4097;DHT22;2062;50.694;7.246;2024-02-26T08:09:49;6.70;64.20
4097;DHT22;2062;50.694;7.246;2024-02-26T08:12:16;6.70;64.30
4097;DHT22;2062;50.694;7.246;2024-02-26T08:14:43;6.70;64.40
4097;DHT22;2062;50.694;7.246;2024-02-26T08:17:10;6.70;64.40
4097;DHT22;2062;50.694;7.246;2024-02-26T08:19:37;6.80;64.20
4097;DHT22;2062;50.694;7.246;2024-02-26T08:22:05;6.70;64.60
4097;DHT22;2062;50.694;7.246;2024-02-26T08:24:32;6.80;64.60
4097;DHT22;2062;50.694;7.246;2024-02-26T08:26:59;6.80;64.50
4097;DHT22;2062;50.694;7.246;2024-02-26T08:29:25;6.80;64.40
4097;DHT22;2062;50.694;7.246;2024-02-26T08:31:52;6.80;64.40
4097;DHT22;2062;50.694;7.246;2024-02-26T08:34:19;6.80;64.40
4097;DHT22;2062;50.694;7.246;2024-02-26T08:36:46;6.80;64.40
4097;DHT22;2062;50.694;7.246;2024-02-26T08:39:15;6.80;64.70
4097;DHT22;2062;50.694;7.246;2024-02-26T08:41:43;6.90;64.60
4097;DHT22;2062;50.694;7.246;2024-02-26T08:44:09;6.80;64.50
4097;DHT22;2062;50.694;7.246;2024-02-26T08:46:36;6.80;64.80
4097;DHT22;2062;50.694;7.246;2024-02-26T08:49:03;6.80;64.70
4097;DHT22;2062;50.694;7.246;2024-02-26T08:51:30;6.80;64.60
4097;DHT22;2062;50.694;7.246;2024-02-26T08:53:57;6.90;64.90
4097;DHT22;2062;50.694;7.246;2024-02-26T08:56:25;6.90;64.90
4097;DHT22;2062;50.694;7.246;2024-02-26T08:58:52;6.90;65.00
4097;DHT22;2062;50.694;7.246;2024-02-26T09:01:22;6.90;65.10
4097;DHT22;2062;50.694;7.246;2024-02-26T09:03:49;6.90;65.50
4097;DHT22;2062;50.694;7.246;2024-02-26T09:06:16;6.90;65.40
4097;DHT22;2062;50.694;7.246;2024-02-26T09:08:42;6.90;65.40
4097;DHT22;2062;50.694;7.246;2024-02-26T09:11:09;6.90;65.40
4097;DHT22;2062;50.694;7.246;2024-02-26T09:13:37;6.90;65.50
4097;DHT22;2062;50.694;7.246;2024-02-26T09:16:05;6.90;65.50
4097;DHT22;2062;50.694;7.246;2024-02-26T09:18:32;6.90;65.30
4097;DHT22;2062;50.694;7.246;2024-02-26T09:20:59;6.90;66.30
4097;DHT22;2062;50.694;7.246;2024-02-26T09:23:27;6.90;66.50
4097;DHT22;2062;50.694;7.246;2024-02-26T09:25:54;6.90;65.80
4097;DHT22;2062;50.694;7.246;2024-02-26T09:28:20;6.90;65.80
4097;DHT22;2062;50.694;7.246;2024-02-26T09:30:49;6.90;66.00
4097;DHT22;2062;50.694;7.246;2024-02-26T09:33:16;6.90;66.10
4097;DHT22;2062;50.694;7.246;2024-02-26T09:35:43;6.90;66.40
4097;DHT22;2062;50.694;7.246;2024-02-26T09:38:10;6.90;66.40
4097;DHT22;2062;50.694;7.246;2024-02-26T09:40:36;6.90;66.50
4097;DHT22;2062;50.694;7.246;2024-02-26T09:43:04;6.90;66.40
4097;DHT22;2062;50.694;7.246;2024-02-26T09:45:33;7.00;66.60
4097;DHT22;2062;50.694;7.246;2024-02-26T09:48:03;6.90;66.70
4097;DHT22;2062;50.694;7.246;2024-02-26T09:50:31;6.90;66.40
4097;DHT22;2062;50.694;7.246;2024-02-26T09:52:59;7.00;66.60
4097;DHT22;2062;50.694;7.246;2024-02-26T09:55:28;6.90;66.60
4097;DHT22;2062;50.694;7.246;2024-02-26T09:57:56;7.00;66.60
4097;DHT22;2062;50.694;7.246;2024-02-26T10:00:25;7.00;66.70
4097;DHT22;2062;50.694;7.246;2024-02-26T10:02:54;7.00;66.90
4097;DHT22;2062;50.694;7.246;2024-02-26T10:05:23;7.00;66.90
4097;DHT22;2062;50.694;7.246;2024-02-26T10:07:52;7.10;66.90
4097;DHT22;2062;50.694;7.246;2024-02-26T10:10:19;7.10;67.10
4097;DHT22;2062;50.694;7.246;2024-02-26T10:12:46;7.00;67.00
4097;DHT22;2062;50.694;7.246;2024-02-26T10:15:12;7.10;67.30
4097;DHT22;2062;50.694;7.246;2024-02-26T10:17:39;7.10;67.30
4097;DHT22;2062;50.694;7.246;2024-02-26T10:20:13;7.10;67.30
4097;DHT22;2062;50.694;7.246;2024-02-26T10:22:42;7.10;67.50
4097;DHT22;2062;50.694;7.246;2024-02-26T10:25:09;7.10;67.60
4097;DHT22;2062;50.694;7.246;2024-02-26T10:27:36;7.20;67.60
4097;DHT22;2062;50.694;7.246;2024-02-26T10:30:03;7.30;67.70
4097;DHT22;2062;50.694;7.246;2024-02-26T10:32:31;7.30;67.90
4097;DHT22;2062;50.694;7.246;2024-02-26T10:34:58;7.30;68.00
4097;DHT22;2062;50.694;7.246;2024-02-26T10:37:25;7.30;68.00
4097;DHT22;2062;50.694;7.246;2024-02-26T10:39:53;7.40;68.00
4097;DHT22;2062;50.694;7.246;2024-02-26T10:42:20;7.40;67.90
4097;DHT22;2062;50.694;7.246;2024-02-26T10:44:47;7.40;68.00
4097;DHT22;2062;50.694;7.246;2024-02-26T10:47:14;7.50;68.10
4097;DHT22;2062;50.694;7.246;2024-02-26T10:49:45;7.50;68.10
4097;DHT22;2062;50.694;7.246;2024-02-26T10:52:14;7.50;68.10
4097;DHT22;2062;50.694;7.246;2024-02-26T10:54:41;7.60;68.00
4097;DHT22;2062;50.694;7.246;2024-02-26T10:57:13;7.60;67.70
4097;DHT22;2062;50.694;7.246;2024-02-26T10:59:42;7.60;67.70
4097;DHT22;2062;50.694;7.246;2024-02-26T11:02:10;7.70;67.90
4097;DHT22;2062;50.694;7.246;2024-02-26T11:04:38;7.70;67.80
4097;DHT22;2062;50.694;7.246;2024-02-26T11:07:05;7.70;67.70
4097;DHT22;2062;50.694;7.246;2024-02-26T11:09:34;7.70;67.80
4097;DHT22;2062;50.694;7.246;2024-02-26T11:12:02;7.80;67.70
4097;DHT22;2062;50.694;7.246;2024-02-26T11:14:36;7.80;67.70
4097;DHT22;2062;50.694;7.246;2024-02-26T11:17:06;7.80;67.70
4097;DHT22;2062;50.694;7.246;2024-02-26T11:19:36;7.80;67.70
4097;DHT22;2062;50.694;7.246;2024-02-26T11:22:03;7.90;67.80
4097;DHT22;2062;50.694;7.246;2024-02-26T11:24:29;7.90;67.70
4097;DHT22;2062;50.694;7.246;2024-02-26T11:27:01;7.90;67.60
4097;DHT22;2062;50.694;7.246;2024-02-26T11:29:39;7.90;67.60
4097;DHT22;2062;50.694;7.246;2024-02-26T11:32:07;7.90;67.50
4097;DHT22;2062;50.694;7.246;2024-02-26T11:34:34;7.90;67.40
4097;DHT22;2062;50.694;7.246;2024-02-26T11:37:09;7.90;67.50
4097;DHT22;2062;50.694;7.246;2024-02-26T11:39:36;7.90;67.50
4097;DHT22;2062;50.694;7.246;2024-02-26T11:42:05;8.00;67.60
4097;DHT22;2062;50.694;7.246;2024-02-26T11:44:34;8.00;67.80
4097;DHT22;2062;50.694;7.246;2024-02-26T11:47:11;8.00;67.70
4097;DHT22;2062;50.694;7.246;2024-02-26T11:49:38;8.00;67.60
4097;DHT22;2062;50.694;7.246;2024-02-26T11:52:06;8.00;67.60
4097;DHT22;2062;50.694;7.246;2024-02-26T11:54:38;8.00;67.70
4097;DHT22;2062;50.694;7.246;2024-02-26T11:57:20;8.00;67.60
4097;DHT22;2062;50.694;7.246;2024-02-26T11:59:47;8.10;67.70
4097;DHT22;2062;50.694;7.246;2024-02-26T12:02:43;8.10;67.60
4097;DHT22;2062;50.694;7.246;2024-02-26T12:05:12;8.10;67.70
4097;DHT22;2062;50.694;7.246;2024-02-26T12:07:43;8.10;67.70
4097;DHT22;2062;50.694;7.246;2024-02-26T12:10:17;8.10;67.50
4097;DHT22;2062;50.694;7.246;2024-02-26T12:12:47;8.20;67.50
4097;DHT22;2062;50.694;7.246;2024-02-26T12:15:15;8.10;67.50
4097;DHT22;2062;50.694;7.246;2024-02-26T12:17:42;8.10;67.60
4097;DHT22;2062;50.694;7.246;2024-02-26T12:20:15;8.20;67.60
4097;DHT22;2062;50.694;7.246;2024-02-26T12:22:45;8.10;67.60
4097;DHT22;2062;50.694;7.246;2024-02-26T12:25:13;8.20;67.70
4097;DHT22;2062;50.694;7.246;2024-02-26T12:27:40;8.20;67.60
4097;DHT22;2062;50.694;7.246;2024-02-26T12:30:08;8.20;67.70
4097;DHT22;2062;50.694;7.246;2024-02-26T12:32:35;8.20;67.80
4097;DHT22;2062;50.694;7.246;2024-02-26T12:35:04;8.20;67.80
4097;DHT22;2062;50.694;7.246;2024-02-26T12:37:32;8.20;67.80
4097;DHT22;2062;50.694;7.246;2024-02-26T12:39:59;8.20;67.60
4097;DHT22;2062;50.694;7.246;2024-02-26T12:42:26;8.20;67.70
4097;DHT22;2062;50.694;7.246;2024-02-26T12:44:53;8.20;67.70
4097;DHT22;2062;50.694;7.246;2024-02-26T12:47:19;8.20;67.60
4097;DHT22;2062;50.694;7.246;2024-02-26T12:49:47;8.30;67.70
4097;DHT22;2062;50.694;7.246;2024-02-26T12:52:16;8.30;67.70
4097;DHT22;2062;50.694;7.246;2024-02-26T12:54:43;8.30;67.70
4097;DHT22;2062;50.694;7.246;2024-02-26T12:57:11;8.20;67.60
4097;DHT22;2062;50.694;7.246;2024-02-26T12:59:38;8.20;67.60
4097;DHT22;2062;50.694;7.246;2024-02-26T13:02:05;8.30;67.90
4097;DHT22;2062;50.694;7.246;2024-02-26T13:04:32;8.30;67.80
4097;DHT22;2062;50.694;7.246;2024-02-26T13:06:59;8.30;67.70
4097;DHT22;2062;50.694;7.246;2024-02-26T13:09:34;8.30;67.90
4097;DHT22;2062;50.694;7.246;2024-02-26T13:12:04;8.20;67.60
4097;DHT22;2062;50.694;7.246;2024-02-26T13:14:31;8.20;67.70
4097;DHT22;2062;50.694;7.246;2024-02-26T13:17:00;8.20;67.50
4097;DHT22;2062;50.694;7.246;2024-02-26T13:19:27;8.20;67.50
4097;DHT22;2062;50.694;7.246;2024-02-26T13:21:54;8.20;67.80
4097;DHT22;2062;50.694;7.246;2024-02-26T13:24:22;8.20;67.80
4097;DHT22;2062;50.694;7.246;2024-02-26T13:26:55;8.20;67.90
4097;DHT22;2062;50.694;7.246;2024-02-26T13:29:22;8.20;67.70
4097;DHT22;2062;50.694;7.246;2024-02-26T13:31:54;8.20;67.90
4097;DHT22;2062;50.694;7.246;2024-02-26T13:34:25;8.20;68.00
4097;DHT22;2062;50.694;7.246;2024-02-26T13:36:53;8.20;67.90
4097;DHT22;2062;50.694;7.246;2024-02-26T13:39:23;8.20;67.70
4097;DHT22;2062;50.694;7.246;2024-02-26T13:41:50;8.20;67.80
4097;DHT22;2062;50.694;7.246;2024-02-26T13:44:19;8.20;68.10
4097;DHT22;2062;50.694;7.246;2024-02-26T13:46:46;8.20;68.00
4097;DHT22;2062;50.694;7.246;2024-02-26T13:49:13;8.20;67.80
4097;DHT22;2062;50.694;7.246;2024-02-26T13:51:40;8.20;67.80
4097;DHT22;2062;50.694;7.246;2024-02-26T13:54:07;8.20;67.80
4097;DHT22;2062;50.694;7.246;2024-02-26T13:56:35;8.30;67.90
4097;DHT22;2062;50.694;7.246;2024-02-26T13:59:02;8.20;67.80
4097;DHT22;2062;50.694;7.246;2024-02-26T14:01:30;8.30;68.20
4097;DHT22;2062;50.694;7.246;2024-02-26T14:03:59;8.30;68.10
4097;DHT22;2062;50.694;7.246;2024-02-26T14:06:27;8.30;68.10
4097;DHT22;2062;50.694;7.246;2024-02-26T14:08:56;8.30;68.00
4097;DHT22;2062;50.694;7.246;2024-02-26T14:11:22;8.30;68.10
4097;DHT22;2062;50.694;7.246;2024-02-26T14:13:50;8.30;68.30
4097;DHT22;2062;50.694;7.246;2024-02-26T14:16:17;8.30;68.20
4097;DHT22;2062;50.694;7.246;2024-02-26T14:18:47;8.30;68.10
4097;DHT22;2062;50.694;7.246;2024-02-26T14:21:13;8.30;68.10
4097;DHT22;2062;50.694;7.246;2024-02-26T14:23:40;8.30;67.90
4097;DHT22;2062;50.694;7.246;2024-02-26T14:26:09;8.30;68.20
4097;DHT22;2062;50.694;7.246;2024-02-26T14:28:36;8.40;68.20
4097;DHT22;2062;50.694;7.246;2024-02-26T14:31:06;8.40;68.10
4097;DHT22;2062;50.694;7.246;2024-02-26T14:33:37;8.20;68.00
4097;DHT22;2062;50.694;7.246;2024-02-26T14:36:06;8.30;68.00
4097;DHT22;2062;50.694;7.246;2024-02-26T14:38:33;8.40;68.10
4097;DHT22;2062;50.694;7.246;2024-02-26T14:41:00;8.40;68.10
4097;DHT22;2062;50.694;7.246;2024-02-26T14:43:26;8.40;68.10
4097;DHT22;2062;50.694;7.246;2024-02-26T14:45:53;8.30;68.10
4097;DHT22;2062;50.694;7.246;2024-02-26T14:48:20;8.40;68.10
4097;DHT22;2062;50.694;7.246;2024-02-26T14:50:46;8.40;68.10
4097;DHT22;2062;50.694;7.246;2024-02-26T14:53:15;8.30;68.10
4097;DHT22;2062;50.694;7.246;2024-02-26T14:55:42;8.30;67.90
4097;DHT22;2062;50.694;7.246;2024-02-26T14:58:08;8.30;68.00
4097;DHT22;2062;50.694;7.246;2024-02-26T15:00:36;8.40;67.90
4097;DHT22;2062;50.694;7.246;2024-02-26T15:03:03;8.30;68.00
4097;DHT22;2062;50.694;7.246;2024-02-26T15:05:31;8.30;68.00
4097;DHT22;2062;50.694;7.246;2024-02-26T15:07:58;8.30;68.10
4097;DHT22;2062;50.694;7.246;2024-02-26T15:10:26;8.30;68.00
4097;DHT22;2062;50.694;7.246;2024-02-26T15:12:54;8.30;68.10
4097;DHT22;2062;50.694;7.246;2024-02-26T15:15:21;8.30;68.00
4097;DHT22;2062;50.694;7.246;2024-02-26T15:17:49;8.30;67.80
4097;DHT22;2062;50.694;7.246;2024-02-26T15:20:17;8.30;67.80
4097;DHT22;2062;50.694;7.246;2024-02-26T15:22:43;8.30;67.90
4097;DHT22;2062;50.694;7.246;2024-02-26T15:25:12;8.30;67.90
4097;DHT22;2062;50.694;7.246;2024-02-26T15:27:40;8.30;67.90
4097;DHT22;2062;50.694;7.246;2024-02-26T15:30:08;8.30;68.00
4097;DHT22;2062;50.694;7.246;2024-02-26T15:32:35;8.30;68.10
4097;DHT22;2062;50.694;7.246;2024-02-26T15:35:02;8.30;67.90
4097;DHT22;2062;50.694;7.246;2024-02-26T15:37:29;8.30;67.90
4097;DHT22;2062;50.694;7.246;2024-02-26T15:39:55;8.30;67.80
4097;DHT22;2062;50.694;7.246;2024-02-26T15:42:22;8.30;67.90
4097;DHT22;2062;50.694;7.246;2024-02-26T15:44:52;8.30;67.80
4097;DHT22;2062;50.694;7.246;2024-02-26T15:47:18;8.30;67.80
4097;DHT22;2062;50.694;7.246;2024-02-26T15:49:45;8.20;67.60
4097;DHT22;2062;50.694;7.246;2024-02-26T15:52:12;8.30;67.70
4097;DHT22;2062;50.694;7.246;2024-02-26T15:54:39;8.30;67.60
4097;DHT22;2062;50.694;7.246;2024-02-26T15:57:06;8.30;68.50
4097;DHT22;2062;50.694;7.246;2024-02-26T15:59:34;8.30;67.70
4097;DHT22;2062;50.694;7.246;2024-02-26T16:02:03;8.30;67.70
4097;DHT22;2062;50.694;7.246;2024-02-26T16:04:30;8.30;67.80
4097;DHT22;2062;50.694;7.246;2024-02-26T16:07:01;8.30;67.70
4097;DHT22;2062;50.694;7.246;2024-02-26T16:09:30;8.30;67.70
4097;DHT22;2062;50.694;7.246;2024-02-26T16:11:57;8.30;67.60
4097;DHT22;2062;50.694;7.246;2024-02-26T16:14:33;8.30;67.60
4097;DHT22;2062;50.694;7.246;2024-02-26T16:17:10;8.30;67.60
4097;DHT22;2062;50.694;7.246;2024-02-26T16:19:39;8.30;67.50